createdAt,value
2023-01-21T00:00:43.101Z,72.44
2023-01-21T00:03:12.950Z,72.19
2023-01-21T00:05:39.727Z,72.20
2023-01-21T00:08:06.227Z,72.60
2023-01-21T00:10:32.729Z,72.75
2023-01-21T00:12:59.275Z,72.44
2023-01-21T00:15:25.931Z,72.36
2023-01-21T00:17:53.568Z,72.63
2023-01-21T00:20:20.165Z,72.97
2023-01-21T00:22:46.647Z,73.29
2023-01-21T00:25:13.164Z,72.91
2023-01-21T00:27:39.883Z,73.00
2023-01-21T00:30:06.895Z,72.81
2023-01-21T00:32:33.413Z,73.24
2023-01-21T00:34:59.902Z,73.20
2023-01-21T00:37:26.513Z,73.20
2023-01-21T00:39:53.022Z,73.05
2023-01-21T00:42:19.554Z,72.87
2023-01-21T00:44:46.066Z,73.45
2023-01-21T00:47:12.557Z,73.38
2023-01-21T00:49:39.144Z,73.08
2023-01-21T00:52:05.750Z,73.56
2023-01-21T00:54:32.432Z,73.39
2023-01-21T00:56:59.256Z,73.40
2023-01-21T00:59:28.116Z,73.27
2023-01-21T01:01:55.087Z,72.99
2023-01-21T01:04:22.968Z,73.02
2023-01-21T01:06:49.487Z,73.25
2023-01-21T01:09:15.998Z,73.08
2023-01-21T01:11:42.508Z,73.25
2023-01-21T01:14:09.175Z,73.05
2023-01-21T01:16:35.717Z,73.10
2023-01-21T01:19:02.197Z,73.76
2023-01-21T01:21:28.777Z,73.41
2023-01-21T01:23:55.731Z,73.53
2023-01-21T01:26:22.674Z,73.78
2023-01-21T01:28:49.299Z,73.67
2023-01-21T01:31:17.777Z,73.62
2023-01-21T01:33:44.368Z,73.73
2023-01-21T01:36:14.923Z,73.51
2023-01-21T01:38:41.645Z,73.21
2023-01-21T01:41:08.952Z,73.16
2023-01-21T01:44:05.755Z,73.10
2023-01-21T01:46:34.842Z,72.92
2023-01-21T01:49:05.936Z,73.03
2023-01-21T01:52:03.577Z,73.45
2023-01-21T01:54:36.403Z,73.36
2023-01-21T01:57:05.809Z,73.26
2023-01-21T01:59:33.114Z,73.37
2023-01-21T02:02:23.088Z,73.40
2023-01-21T02:04:58.916Z,73.47
2023-01-21T02:07:26.907Z,73.16
2023-01-21T02:09:53.863Z,73.21
2023-01-21T02:12:20.618Z,73.23
2023-01-21T02:14:47.444Z,73.34
2023-01-21T02:17:26.681Z,73.15
2023-01-21T02:20:18.744Z,73.15
2023-01-21T02:22:59.373Z,73.37
2023-01-21T02:25:47.697Z,73.35
2023-01-21T02:28:47.902Z,73.24
2023-01-21T02:31:55.218Z,73.36
2023-01-21T02:34:31.505Z,73.15
2023-01-21T02:37:07.221Z,72.97
2023-01-21T02:39:56.718Z,73.15
2023-01-21T02:42:35.496Z,72.72
2023-01-21T02:45:24.929Z,72.76
2023-01-21T02:48:08.531Z,72.70
2023-01-21T02:50:48.056Z,72.94
2023-01-21T02:53:27.348Z,72.57
2023-01-21T02:55:54.475Z,72.80
2023-01-21T02:58:32.056Z,72.38
2023-01-21T03:01:43.260Z,72.71
2023-01-21T03:04:37.490Z,72.85
2023-01-21T03:07:27.379Z,72.43
2023-01-21T03:09:58.291Z,72.46
2023-01-21T03:12:28.974Z,73.18
2023-01-21T03:15:45.594Z,73.29
2023-01-21T03:18:17.707Z,73.04
2023-01-21T03:20:47.774Z,72.92
2023-01-21T03:23:24.315Z,72.80
2023-01-21T03:25:51.007Z,72.53
2023-01-21T03:28:21.910Z,72.51
2023-01-21T03:30:55.408Z,72.66
2023-01-21T03:33:22.919Z,72.39
2023-01-21T03:35:52.123Z,72.49
2023-01-21T03:38:25.089Z,72.57
2023-01-21T03:40:56.617Z,72.29
2023-01-21T03:43:23.136Z,72.44
2023-01-21T03:45:55.557Z,72.31
2023-01-21T03:48:28.670Z,72.69
2023-01-21T03:51:05.425Z,72.22
2023-01-21T03:53:31.960Z,71.70
2023-01-21T03:55:59.966Z,72.14
2023-01-21T03:58:27.555Z,72.14
2023-01-21T04:00:54.211Z,72.06
2023-01-21T04:03:20.807Z,71.98
2023-01-21T04:05:47.355Z,72.22
2023-01-21T04:08:13.886Z,72.09
2023-01-21T04:10:40.418Z,72.54
2023-01-21T04:13:07.048Z,72.48
2023-01-21T04:15:33.579Z,72.48
2023-01-21T04:18:00.189Z,72.24
2023-01-21T04:20:26.668Z,72.13
2023-01-21T04:22:53.359Z,71.70
2023-01-21T04:25:20.104Z,72.28
2023-01-21T04:27:46.620Z,72.10
2023-01-21T04:30:13.360Z,71.76
2023-01-21T04:32:40.097Z,71.90
2023-01-21T04:35:07.104Z,71.54
2023-01-21T04:37:33.866Z,71.87
2023-01-21T04:40:00.381Z,71.55
2023-01-21T04:42:26.909Z,71.89
2023-01-21T04:44:53.450Z,71.48
2023-01-21T04:47:19.949Z,71.55
2023-01-21T04:49:48.741Z,71.72
2023-01-21T04:52:15.307Z,71.94
2023-01-21T04:54:41.872Z,71.62
2023-01-21T04:57:08.404Z,71.93
2023-01-21T04:59:35.066Z,72.42
2023-01-21T05:02:01.611Z,72.16
2023-01-21T05:04:28.242Z,72.12
2023-01-21T05:06:55.748Z,72.02
2023-01-21T05:09:22.314Z,71.91
2023-01-21T05:11:48.977Z,72.28
2023-01-21T05:14:15.498Z,72.19
2023-01-21T05:16:42.062Z,72.03
2023-01-21T05:19:08.624Z,71.95
2023-01-21T05:21:35.155Z,71.86
2023-01-21T05:24:02.155Z,72.00
2023-01-21T05:26:28.747Z,72.00
2023-01-21T05:28:55.249Z,72.49
2023-01-21T05:31:21.813Z,72.17
2023-01-21T05:33:48.669Z,72.52
2023-01-21T05:36:15.164Z,72.68
2023-01-21T05:38:41.691Z,72.43
2023-01-21T05:41:08.361Z,72.60
2023-01-21T05:43:34.923Z,72.58
2023-01-21T05:46:01.709Z,72.40
2023-01-21T05:48:29.551Z,72.39
2023-01-21T05:50:58.283Z,72.04
2023-01-21T05:53:25.368Z,72.04
2023-01-21T05:55:53.694Z,72.26
2023-01-21T05:58:20.842Z,72.39
2023-01-21T06:00:48.528Z,72.39
2023-01-21T06:03:16.064Z,72.33
2023-01-21T06:05:43.092Z,72.34
2023-01-21T06:08:10.721Z,72.32
2023-01-21T06:10:37.667Z,71.99
2023-01-21T06:13:04.252Z,71.55
2023-01-21T06:15:33.574Z,72.12
2023-01-21T06:18:01.320Z,72.12
2023-01-21T06:20:30.526Z,71.92
2023-01-21T06:22:58.124Z,71.95
2023-01-21T06:25:25.631Z,71.69
2023-01-21T06:27:55.505Z,71.37
2023-01-21T06:30:22.999Z,71.79
2023-01-21T06:32:49.497Z,71.67
2023-01-21T06:35:16.153Z,71.54
2023-01-21T06:37:42.756Z,71.52
2023-01-21T06:40:10.358Z,71.42
2023-01-21T06:42:36.871Z,71.73
2023-01-21T06:45:03.987Z,71.85
2023-01-21T06:47:30.962Z,71.84
2023-01-21T06:49:57.954Z,71.66
2023-01-21T06:52:24.434Z,71.62
2023-01-21T06:54:50.965Z,71.28
2023-01-21T06:57:17.461Z,71.79
2023-01-21T06:59:44.010Z,71.51
2023-01-21T07:02:12.800Z,71.77
2023-01-21T07:04:39.504Z,71.83
2023-01-21T07:07:06.066Z,71.66
2023-01-21T07:09:32.591Z,71.86
2023-01-21T07:11:59.089Z,71.57
2023-01-21T07:14:25.626Z,71.49
2023-01-21T07:16:52.123Z,71.91
2023-01-21T07:19:21.398Z,71.81
2023-01-21T07:21:47.843Z,71.98
2023-01-21T07:24:14.346Z,72.08
2023-01-21T07:26:41.956Z,71.56
2023-01-21T07:29:09.153Z,71.20
2023-01-21T07:31:35.939Z,71.34
2023-01-21T07:34:03.044Z,71.21
2023-01-21T07:36:29.644Z,71.71
2023-01-21T07:38:56.207Z,71.94
2023-01-21T07:41:22.960Z,71.92
2023-01-21T07:43:50.486Z,72.16
2023-01-21T07:46:18.175Z,71.51
2023-01-21T07:48:44.682Z,72.11
2023-01-21T07:51:11.256Z,71.59
2023-01-21T07:53:37.763Z,71.26
2023-01-21T07:56:07.881Z,71.22
2023-01-21T07:58:34.440Z,71.38
2023-01-21T08:01:03.895Z,71.60
2023-01-21T08:03:30.370Z,71.61
2023-01-21T08:05:56.867Z,71.26
2023-01-21T08:08:23.351Z,71.68
2023-01-21T08:10:56.353Z,71.21
2023-01-21T08:13:23.327Z,70.96
2023-01-21T08:15:51.286Z,71.53
2023-01-21T08:18:18.215Z,71.16
2023-01-21T08:20:44.980Z,71.55
2023-01-21T08:23:11.627Z,71.40
2023-01-21T08:25:38.574Z,71.38
2023-01-21T08:28:05.310Z,71.10
2023-01-21T08:30:32.001Z,70.99
2023-01-21T08:32:58.619Z,70.82
2023-01-21T08:35:25.284Z,70.80
2023-01-21T08:37:54.576Z,70.59
2023-01-21T08:40:21.069Z,70.80
2023-01-21T08:42:47.564Z,70.70
2023-01-21T08:45:15.456Z,70.83
2023-01-21T08:47:42.065Z,70.47
2023-01-21T08:50:09.827Z,70.49
2023-01-21T08:52:36.371Z,70.56
2023-01-21T08:55:02.891Z,70.63
2023-01-21T08:57:29.945Z,70.40
2023-01-21T08:59:56.748Z,70.69
2023-01-21T09:02:23.683Z,70.52
2023-01-21T09:04:50.690Z,71.12
2023-01-21T09:07:17.331Z,70.82
2023-01-21T09:09:44.059Z,70.77
2023-01-21T09:12:10.626Z,70.65
2023-01-21T09:14:37.493Z,71.06
2023-01-21T09:17:04.152Z,70.60
2023-01-21T09:19:31.078Z,70.62
2023-01-21T09:21:57.818Z,70.37
2023-01-21T09:24:25.215Z,70.62
2023-01-21T09:26:52.458Z,70.12
2023-01-21T09:29:19.272Z,69.70
2023-01-21T09:31:46.149Z,69.97
2023-01-21T09:34:13.018Z,70.41
2023-01-21T09:36:39.667Z,70.04
2023-01-21T09:39:07.919Z,70.41
2023-01-21T09:41:45.641Z,70.15
2023-01-21T09:44:21.135Z,69.59
2023-01-21T09:47:11.284Z,69.51
2023-01-21T09:49:41.655Z,69.78
2023-01-21T09:52:27.196Z,69.74
2023-01-21T09:54:55.187Z,69.92
2023-01-21T09:57:39.470Z,69.50
2023-01-21T10:00:15.670Z,69.42
2023-01-21T10:03:04.711Z,69.71
2023-01-21T10:05:50.338Z,69.38
2023-01-21T10:08:29.336Z,69.24
2023-01-21T10:11:34.108Z,68.82
2023-01-21T10:14:07.089Z,69.23
2023-01-21T10:16:55.834Z,68.88
2023-01-21T10:19:39.803Z,68.81
2023-01-21T10:22:13.059Z,68.48
2023-01-21T10:24:46.212Z,68.95
2023-01-21T10:27:16.902Z,68.31
2023-01-21T10:29:43.648Z,68.49
2023-01-21T10:32:15.172Z,68.72
2023-01-21T10:34:50.213Z,68.00
2023-01-21T10:37:29.460Z,67.79
2023-01-21T10:40:02.168Z,67.60
2023-01-21T10:42:51.234Z,67.65
2023-01-21T10:45:28.258Z,67.89
2023-01-21T10:48:15.943Z,67.77
2023-01-21T10:51:06.328Z,68.25
2023-01-21T10:53:44.505Z,67.61
2023-01-21T10:56:29.194Z,67.73
2023-01-21T10:59:05.877Z,68.51
2023-01-21T11:01:36.356Z,68.18
2023-01-21T11:04:14.578Z,68.09
2023-01-21T11:06:41.287Z,68.11
2023-01-21T11:09:11.471Z,67.50
2023-01-21T11:11:40.721Z,68.23
2023-01-21T11:14:08.068Z,67.83
2023-01-21T11:16:49.661Z,68.01
2023-01-21T11:19:30.492Z,67.91
2023-01-21T11:22:09.180Z,68.19
2023-01-21T11:24:47.114Z,67.95
2023-01-21T11:27:21.473Z,67.49
2023-01-21T11:29:49.508Z,67.49
2023-01-21T11:32:24.313Z,67.78
2023-01-21T11:35:00.973Z,67.98
2023-01-21T11:37:29.283Z,67.29
2023-01-21T11:39:58.703Z,66.98
2023-01-21T11:42:25.331Z,67.25
2023-01-21T11:44:54.739Z,67.39
2023-01-21T11:47:51.295Z,67.00
2023-01-21T11:50:35.354Z,66.78
2023-01-21T11:55:47.428Z,66.97
2023-01-21T11:58:30.445Z,66.75
2023-01-21T12:01:06.833Z,66.68
2023-01-21T12:03:37.710Z,66.61
2023-01-21T12:06:06.918Z,66.60
2023-01-21T12:08:35.890Z,66.61
2023-01-21T12:11:03.732Z,66.73
2023-01-21T12:14:05.687Z,66.15
2023-01-21T12:16:37.571Z,66.64
2023-01-21T12:19:26.607Z,66.29
2023-01-21T12:22:01.759Z,66.57
2023-01-21T12:24:49.947Z,66.77
2023-01-21T12:27:19.392Z,66.40
2023-01-21T12:29:56.374Z,66.60
2023-01-21T12:32:40.921Z,66.22
2023-01-21T12:35:12.923Z,66.58
2023-01-21T12:37:54.164Z,66.53
2023-01-21T12:40:46.100Z,66.17
2023-01-21T12:43:20.055Z,65.77
2023-01-21T12:45:51.557Z,66.12
2023-01-21T12:48:24.287Z,66.13
2023-01-21T12:50:59.370Z,65.99
2023-01-21T12:53:49.426Z,65.89
2023-01-21T12:56:44.778Z,65.69
2023-01-21T12:59:19.717Z,65.75
2023-01-21T13:01:52.343Z,65.41
2023-01-21T13:04:45.835Z,65.48
2023-01-21T13:07:26.878Z,64.91
2023-01-21T13:10:03.423Z,64.71
2023-01-21T13:12:31.518Z,65.23
2023-01-21T13:15:16.962Z,65.22
2023-01-21T13:17:49.533Z,64.96
2023-01-21T13:20:21.120Z,65.27
2023-01-21T13:22:57.231Z,65.00
2023-01-21T13:25:44.839Z,65.42
2023-01-21T13:28:38.519Z,64.84
2023-01-21T13:31:15.286Z,65.20
2023-01-21T13:33:55.107Z,65.62
2023-01-21T13:36:59.170Z,65.00
2023-01-21T13:39:28.703Z,65.13
2023-01-21T13:42:32.574Z,64.81
2023-01-21T13:45:22.283Z,65.29
2023-01-21T13:48:10.574Z,64.76
2023-01-21T13:51:00.031Z,65.16
2023-01-21T13:53:44.340Z,65.34
2023-01-21T13:56:45.334Z,65.16
2023-01-21T13:59:21.066Z,64.89
2023-01-21T14:01:49.757Z,64.94
2023-01-21T14:04:43.174Z,64.67
2023-01-21T14:07:19.091Z,65.18
2023-01-21T14:10:02.401Z,64.85
2023-01-21T14:12:52.586Z,65.21
2023-01-21T14:15:26.660Z,64.96
2023-01-21T14:18:19.791Z,64.96
2023-01-21T14:21:08.224Z,65.17
2023-01-21T14:23:44.184Z,65.21
2023-01-21T14:26:29.435Z,65.23
2023-01-21T14:29:06.705Z,64.79
2023-01-21T14:31:37.454Z,64.97
2023-01-21T14:34:10.265Z,64.97
2023-01-21T14:36:41.768Z,64.27
2023-01-21T14:39:29.204Z,64.40
2023-01-21T14:42:04.769Z,65.00
2023-01-21T14:44:45.635Z,64.14
2023-01-21T14:47:28.749Z,64.49
2023-01-21T14:49:57.210Z,64.26
2023-01-21T14:52:43.254Z,63.98
2023-01-21T14:55:30.046Z,63.79
2023-01-21T14:57:57.476Z,63.83
2023-01-21T15:00:29.243Z,64.19
2023-01-21T15:03:13.475Z,64.09
2023-01-21T15:05:41.166Z,63.60
2023-01-21T15:08:24.140Z,63.13
2023-01-21T15:10:53.891Z,63.05
2023-01-21T15:13:47.364Z,63.62
2023-01-21T15:16:34.187Z,64.11
2023-01-21T15:19:09.940Z,64.24
2023-01-21T15:21:36.411Z,64.65
2023-01-21T15:24:18.982Z,64.77
2023-01-21T15:27:13.399Z,64.78
2023-01-21T15:29:55.275Z,65.08
2023-01-21T15:32:31.350Z,65.32
2023-01-21T15:35:19.911Z,65.37
2023-01-21T15:37:49.331Z,65.64
2023-01-21T15:40:18.575Z,67.06
2023-01-21T15:42:53.376Z,67.68
2023-01-21T15:45:47.696Z,68.68
2023-01-21T15:48:18.226Z,67.97
2023-01-21T15:50:55.206Z,68.84
2023-01-21T15:53:29.446Z,69.77
2023-01-21T15:56:24.349Z,70.31
2023-01-21T15:59:16.507Z,70.37
2023-01-21T16:01:43.232Z,72.20
2023-01-21T16:04:27.590Z,73.36
2023-01-21T16:07:15.689Z,72.24
2023-01-21T16:10:08.901Z,72.30
2023-01-21T16:13:05.266Z,72.33
2023-01-21T16:15:54.121Z,73.03
2023-01-21T16:18:38.010Z,73.60
2023-01-21T16:21:04.705Z,73.95
2023-01-21T16:23:36.536Z,74.44
2023-01-21T16:26:03.699Z,74.66
2023-01-21T16:28:49.873Z,74.87
2023-01-21T16:31:16.747Z,75.16
2023-01-21T16:33:43.513Z,74.71
2023-01-21T16:36:14.077Z,75.67
2023-01-21T16:38:42.276Z,75.65
2023-01-21T16:41:08.796Z,76.52
2023-01-21T16:43:38.723Z,76.00
2023-01-21T16:46:11.965Z,76.26
2023-01-21T16:48:38.665Z,76.48
2023-01-21T16:51:05.502Z,77.27
2023-01-21T16:53:32.416Z,76.78
2023-01-21T16:55:59.575Z,77.00
2023-01-21T16:58:29.614Z,77.52
2023-01-21T17:01:10.505Z,77.86
2023-01-21T17:03:37.845Z,78.65
2023-01-21T17:06:09.004Z,79.25
2023-01-21T17:08:36.459Z,79.57
2023-01-21T17:11:08.106Z,79.96
2023-01-21T17:13:41.558Z,80.31
2023-01-21T17:16:30.540Z,81.26
2023-01-21T17:19:00.128Z,80.86
2023-01-21T17:21:34.355Z,80.35
2023-01-21T17:24:04.663Z,79.91
2023-01-21T17:26:34.821Z,80.48
2023-01-21T17:29:18.637Z,80.39
2023-01-21T17:31:46.266Z,80.80
2023-01-21T17:34:15.657Z,80.69
2023-01-21T17:36:44.521Z,81.50
2023-01-21T17:39:11.549Z,81.36
2023-01-21T17:41:41.062Z,81.64
2023-01-21T17:44:24.483Z,81.60
2023-01-21T17:46:54.717Z,81.68
2023-01-21T17:49:23.403Z,82.12
2023-01-21T17:51:52.684Z,81.52
2023-01-21T17:54:26.367Z,82.02
2023-01-21T17:56:55.074Z,81.43
2023-01-21T17:59:31.341Z,82.28
2023-01-21T18:01:58.049Z,82.15
2023-01-21T18:04:24.765Z,82.73
2023-01-21T18:06:52.807Z,82.18
2023-01-21T18:09:20.758Z,82.59
2023-01-21T18:11:48.470Z,82.25
2023-01-21T18:14:20.599Z,82.81
2023-01-21T18:16:47.664Z,83.17
2023-01-21T18:19:31.436Z,83.23
2023-01-21T18:21:58.782Z,82.88
2023-01-21T18:24:25.798Z,82.98
2023-01-21T18:26:52.704Z,82.51
2023-01-21T18:29:21.780Z,83.24
2023-01-21T18:31:50.723Z,83.18
2023-01-21T18:34:18.105Z,83.35
2023-01-21T18:36:44.791Z,83.27
2023-01-21T18:39:21.389Z,83.40
2023-01-21T18:41:48.011Z,83.09
2023-01-21T18:44:14.928Z,83.12
2023-01-21T18:46:43.221Z,82.94
2023-01-21T18:49:19.354Z,82.92
2023-01-21T18:51:46.502Z,83.67
2023-01-21T18:54:14.247Z,83.13
2023-01-21T18:56:42.439Z,83.17
2023-01-21T18:59:12.499Z,83.39
2023-01-21T19:01:39.269Z,83.52
2023-01-21T19:04:09.551Z,83.74
2023-01-21T19:06:36.560Z,83.04
2023-01-21T19:09:03.638Z,82.97
2023-01-21T19:11:30.240Z,83.14
2023-01-21T19:13:56.815Z,83.17
2023-01-21T19:16:23.453Z,83.32
2023-01-21T19:18:50.310Z,83.52
2023-01-21T19:21:16.940Z,83.47
2023-01-21T19:23:43.599Z,83.84
2023-01-21T19:26:13.067Z,83.70
2023-01-21T19:28:39.632Z,83.36
2023-01-21T19:31:06.369Z,83.70
2023-01-21T19:33:32.985Z,84.12
2023-01-21T19:36:03.270Z,84.57
2023-01-21T19:38:30.176Z,84.12
2023-01-21T19:40:56.841Z,83.98
2023-01-21T19:43:23.521Z,83.90
2023-01-21T19:45:51.533Z,83.64
2023-01-21T19:48:19.559Z,84.17
2023-01-21T19:50:46.400Z,84.38
2023-01-21T19:53:15.254Z,84.00
2023-01-21T19:55:42.475Z,84.22
2023-01-21T19:58:29.242Z,84.26
2023-01-21T20:00:56.130Z,84.35
2023-01-21T20:03:24.610Z,84.29
2023-01-21T20:05:58.517Z,83.85
2023-01-21T20:08:27.660Z,83.74
2023-01-21T20:10:54.231Z,83.82
2023-01-21T20:13:20.937Z,84.10
2023-01-21T20:15:48.726Z,84.21
2023-01-21T20:18:33.624Z,83.63
2023-01-21T20:21:00.155Z,84.09
2023-01-21T20:23:26.890Z,84.02
2023-01-21T20:25:55.502Z,84.42
2023-01-21T20:28:24.932Z,84.03
2023-01-21T20:30:52.682Z,84.25
2023-01-21T20:33:21.402Z,84.41
2023-01-21T20:35:49.875Z,84.76
2023-01-21T20:38:21.769Z,84.54
2023-01-21T20:40:48.321Z,84.13
2023-01-21T20:43:16.073Z,84.50
2023-01-21T20:45:46.670Z,84.52
2023-01-21T20:48:22.966Z,84.53
2023-01-21T20:50:51.156Z,84.77
2023-01-21T20:53:17.753Z,84.52
2023-01-21T20:55:46.560Z,84.54
2023-01-21T20:58:14.357Z,84.25
2023-01-21T21:00:41.363Z,84.01
2023-01-21T21:03:07.940Z,84.90
2023-01-21T21:05:34.518Z,84.89
2023-01-21T21:08:01.053Z,84.72
2023-01-21T21:10:36.255Z,84.38
2023-01-21T21:13:03.874Z,84.45
2023-01-21T21:15:31.902Z,84.45
2023-01-21T21:17:59.316Z,84.30
2023-01-21T21:20:28.323Z,84.50
2023-01-21T21:22:54.942Z,84.69
2023-01-21T21:25:23.578Z,84.73
2023-01-21T21:27:50.195Z,84.79
2023-01-21T21:30:37.017Z,84.76
2023-01-21T21:33:03.798Z,84.82
2023-01-21T21:35:35.828Z,85.29
2023-01-21T21:38:08.092Z,84.49
2023-01-21T21:40:37.507Z,84.73
2023-01-21T21:43:22.647Z,84.35
2023-01-21T21:46:08.093Z,84.34
2023-01-21T21:48:46.086Z,84.07
2023-01-21T21:51:14.673Z,84.25
2023-01-21T21:53:41.717Z,83.99
2023-01-21T21:56:10.952Z,84.59
2023-01-21T21:58:37.637Z,83.83
2023-01-21T22:01:15.588Z,84.71
2023-01-21T22:03:42.281Z,84.42
2023-01-21T22:06:09.629Z,83.77
2023-01-21T22:08:38.020Z,83.89
2023-01-21T22:11:06.381Z,84.29
2023-01-21T22:13:38.019Z,84.43
2023-01-21T22:16:04.964Z,84.74
2023-01-21T22:18:33.032Z,84.51
2023-01-21T22:21:04.970Z,84.35
2023-01-21T22:23:32.756Z,84.55
2023-01-21T22:26:01.984Z,84.55
2023-01-21T22:28:28.659Z,84.08
2023-01-21T22:30:55.632Z,84.15
2023-01-21T22:33:22.385Z,84.58
2023-01-21T22:35:48.979Z,84.15
2023-01-21T22:38:15.552Z,83.75
2023-01-21T22:40:42.100Z,84.04
2023-01-21T22:43:09.269Z,84.15
2023-01-21T22:45:35.888Z,84.06
2023-01-21T22:48:02.429Z,84.17
2023-01-21T22:50:29.115Z,84.50
2023-01-21T22:52:56.576Z,84.40
2023-01-21T22:55:23.236Z,84.31
2023-01-21T22:57:49.823Z,84.54
2023-01-21T23:00:33.818Z,84.29
2023-01-21T23:03:00.459Z,84.33
2023-01-21T23:05:28.496Z,84.04
2023-01-21T23:07:55.455Z,84.10
2023-01-21T23:10:22.035Z,83.78
2023-01-21T23:12:48.555Z,83.51
2023-01-21T23:15:15.149Z,83.02
2023-01-21T23:17:41.691Z,83.34
2023-01-21T23:20:09.283Z,82.83
2023-01-21T23:22:35.881Z,82.74
2023-01-21T23:25:02.444Z,83.32
2023-01-21T23:27:28.991Z,83.49
2023-01-21T23:29:55.542Z,83.33
2023-01-21T23:32:22.148Z,83.43
2023-01-21T23:34:48.687Z,83.79
2023-01-21T23:37:15.218Z,83.33
2023-01-21T23:39:42.260Z,83.07
2023-01-21T23:42:08.944Z,83.33
2023-01-21T23:44:35.491Z,83.31
2023-01-21T23:47:02.176Z,83.38
2023-01-21T23:49:29.006Z,83.55
2023-01-21T23:51:55.721Z,83.38
2023-01-21T23:54:22.264Z,83.48
2023-01-21T23:56:48.770Z,83.85
2023-01-21T23:59:15.469Z,83.54
